sensor_id;sensor_type;location;lat;lon;timestamp;temperature;humidity
16136;DHT22;8173;48.354;9.248;2023-01-20T00:01:06;-4.90;99.90
16136;DHT22;8173;48.354;9.248;2023-01-20T00:03:35;-4.80;99.90
16136;DHT22;8173;48.354;9.248;2023-01-20T00:06:02;-4.70;99.90
16136;DHT22;8173;48.354;9.248;2023-01-20T00:08:29;-4.60;99.90
16136;DHT22;8173;48.354;9.248;2023-01-20T00:10:56;-4.60;99.90
16136;DHT22;8173;48.354;9.248;2023-01-20T00:13:23;-4.70;99.90
16136;DHT22;8173;48.354;9.248;2023-01-20T00:15:50;-4.70;99.90
16136;DHT22;8173;48.354;9.248;2023-01-20T00:18:17;-4.70;99.90
16136;DHT22;8173;48.354;9.248;2023-01-20T00:20:45;-4.70;99.90
16136;DHT22;8173;48.354;9.248;2023-01-20T00:23:11;-4.70;99.90
16136;DHT22;8173;48.354;9.248;2023-01-20T00:25:38;-4.70;99.90
16136;DHT22;8173;48.354;9.248;2023-01-20T00:28:05;-4.80;99.90
16136;DHT22;8173;48.354;9.248;2023-01-20T00:30:32;-4.80;99.90
16136;DHT22;8173;48.354;9.248;2023-01-20T00:32:58;-4.80;99.90
16136;DHT22;8173;48.354;9.248;2023-01-20T00:35:25;-4.70;99.90
16136;DHT22;8173;48.354;9.248;2023-01-20T00:37:53;-4.70;99.90
16136;DHT22;8173;48.354;9.248;2023-01-20T00:40:20;-4.80;99.90
16136;DHT22;8173;48.354;9.248;2023-01-20T00:42:46;-4.80;99.90
16136;DHT22;8173;48.354;9.248;2023-01-20T00:45:13;-4.70;99.90
16136;DHT22;8173;48.354;9.248;2023-01-20T00:47:40;-4.70;99.90
16136;DHT22;8173;48.354;9.248;2023-01-20T00:50:07;-4.70;99.90
16136;DHT22;8173;48.354;9.248;2023-01-20T00:52:34;-5.10;99.90
16136;DHT22;8173;48.354;9.248;2023-01-20T00:55:02;-4.60;99.90
16136;DHT22;8173;48.354;9.248;2023-01-20T00:57:29;-4.80;99.90
16136;DHT22;8173;48.354;9.248;2023-01-20T00:59:56;-4.90;99.90
16136;DHT22;8173;48.354;9.248;2023-01-20T01:02:23;-5.00;99.90
16136;DHT22;8173;48.354;9.248;2023-01-20T01:04:49;-4.90;99.90
16136;DHT22;8173;48.354;9.248;2023-01-20T01:07:16;-4.90;99.90
16136;DHT22;8173;48.354;9.248;2023-01-20T01:09:43;-4.90;99.90
16136;DHT22;8173;48.354;9.248;2023-01-20T01:12:11;-5.00;99.90
16136;DHT22;8173;48.354;9.248;2023-01-20T01:14:38;-5.00;99.90
16136;DHT22;8173;48.354;9.248;2023-01-20T01:17:04;-4.90;99.90
16136;DHT22;8173;48.354;9.248;2023-01-20T01:19:31;-4.90;99.90
16136;DHT22;8173;48.354;9.248;2023-01-20T01:21:58;-4.90;99.90
16136;DHT22;8173;48.354;9.248;2023-01-20T01:24:24;-4.90;99.90
16136;DHT22;8173;48.354;9.248;2023-01-20T01:26:52;-4.80;99.90
16136;DHT22;8173;48.354;9.248;2023-01-20T01:29:20;-4.80;99.90
16136;DHT22;8173;48.354;9.248;2023-01-20T01:31:47;-4.80;99.90
16136;DHT22;8173;48.354;9.248;2023-01-20T01:34:14;-4.80;99.90
16136;DHT22;8173;48.354;9.248;2023-01-20T01:36:40;-4.70;99.90
16136;DHT22;8173;48.354;9.248;2023-01-20T01:39:07;-4.70;99.90
16136;DHT22;8173;48.354;9.248;2023-01-20T01:41:34;-4.70;99.90
16136;DHT22;8173;48.354;9.248;2023-01-20T01:44:04;-3.00;99.90
16136;DHT22;8173;48.354;9.248;2023-01-20T01:46:32;-4.80;99.90
16136;DHT22;8173;48.354;9.248;2023-01-20T01:49:03;-3.40;99.90
16136;DHT22;8173;48.354;9.248;2023-01-20T01:51:35;-4.70;99.90
16136;DHT22;8173;48.354;9.248;2023-01-20T01:54:06;-4.70;99.90
16136;DHT22;8173;48.354;9.248;2023-01-20T01:56:35;-4.70;99.90
16136;DHT22;8173;48.354;9.248;2023-01-20T01:59:03;-4.70;99.90
16136;DHT22;8173;48.354;9.248;2023-01-20T02:01:34;-4.70;99.90
16136;DHT22;8173;48.354;9.248;2023-01-20T02:04:07;-4.80;99.90
16136;DHT22;8173;48.354;9.248;2023-01-20T02:06:37;-4.90;99.90
16136;DHT22;8173;48.354;9.248;2023-01-20T02:09:05;-5.00;99.90
16136;DHT22;8173;48.354;9.248;2023-01-20T02:11:35;-4.90;99.90
16136;DHT22;8173;48.354;9.248;2023-01-20T02:14:04;-4.90;99.90
16136;DHT22;8173;48.354;9.248;2023-01-20T02:16:40;-5.00;99.90
16136;DHT22;8173;48.354;9.248;2023-01-20T02:22:17;-5.00;99.90
16136;DHT22;8173;48.354;9.248;2023-01-20T02:34:10;-5.00;99.90
16136;DHT22;8173;48.354;9.248;2023-01-20T02:36:42;-5.00;99.90
16136;DHT22;8173;48.354;9.248;2023-01-20T02:39:14;-5.00;99.90
16136;DHT22;8173;48.354;9.248;2023-01-20T02:41:50;-5.00;99.90
16136;DHT22;8173;48.354;9.248;2023-01-20T02:44:23;-4.90;99.90
16136;DHT22;8173;48.354;9.248;2023-01-20T02:46:58;-4.90;99.90
16136;DHT22;8173;48.354;9.248;2023-01-20T02:49:31;-4.80;99.90
16136;DHT22;8173;48.354;9.248;2023-01-20T02:52:03;-4.90;99.90
16136;DHT22;8173;48.354;9.248;2023-01-20T02:54:35;-4.90;99.90
16136;DHT22;8173;48.354;9.248;2023-01-20T02:57:05;-4.90;99.90
16136;DHT22;8173;48.354;9.248;2023-01-20T02:59:36;-5.00;99.90
16136;DHT22;8173;48.354;9.248;2023-01-20T03:02:07;-5.10;99.90
16136;DHT22;8173;48.354;9.248;2023-01-20T03:04:39;-5.10;99.90
16136;DHT22;8173;48.354;9.248;2023-01-20T03:07:09;-5.20;99.90
16136;DHT22;8173;48.354;9.248;2023-01-20T03:09:39;-5.20;99.90
16136;DHT22;8173;48.354;9.248;2023-01-20T03:12:10;-5.30;99.90
16136;DHT22;8173;48.354;9.248;2023-01-20T03:14:39;-5.30;99.90
16136;DHT22;8173;48.354;9.248;2023-01-20T03:17:06;-5.40;99.90
16136;DHT22;8173;48.354;9.248;2023-01-20T03:19:33;-5.60;99.90
16136;DHT22;8173;48.354;9.248;2023-01-20T03:22:01;-5.70;99.90
16136;DHT22;8173;48.354;9.248;2023-01-20T03:24:29;-5.80;99.90
16136;DHT22;8173;48.354;9.248;2023-01-20T03:26:58;-5.90;99.90
16136;DHT22;8173;48.354;9.248;2023-01-20T03:29:25;-6.00;99.90
16136;DHT22;8173;48.354;9.248;2023-01-20T03:31:54;-6.10;99.90
16136;DHT22;8173;48.354;9.248;2023-01-20T03:34:24;-6.10;99.90
16136;DHT22;8173;48.354;9.248;2023-01-20T03:36:52;-6.10;99.90
16136;DHT22;8173;48.354;9.248;2023-01-20T03:39:22;-6.20;99.90
16136;DHT22;8173;48.354;9.248;2023-01-20T03:42:02;-6.30;99.90
16136;DHT22;8173;48.354;9.248;2023-01-20T03:44:35;-6.40;99.90
16136;DHT22;8173;48.354;9.248;2023-01-20T03:47:12;-6.50;99.90
16136;DHT22;8173;48.354;9.248;2023-01-20T03:49:45;-6.50;99.90
16136;DHT22;8173;48.354;9.248;2023-01-20T03:52:17;-6.50;99.90
16136;DHT22;8173;48.354;9.248;2023-01-20T03:54:52;-6.60;99.90
16136;DHT22;8173;48.354;9.248;2023-01-20T03:57:25;-6.70;99.90
16136;DHT22;8173;48.354;9.248;2023-01-20T03:59:55;-6.80;99.90
16136;DHT22;8173;48.354;9.248;2023-01-20T04:02:22;-6.90;99.90
16136;DHT22;8173;48.354;9.248;2023-01-20T04:04:52;-6.90;99.90
16136;DHT22;8173;48.354;9.248;2023-01-20T04:07:21;-7.00;99.90
16136;DHT22;8173;48.354;9.248;2023-01-20T04:09:52;-7.00;99.90
16136;DHT22;8173;48.354;9.248;2023-01-20T04:12:19;-6.90;99.90
16136;DHT22;8173;48.354;9.248;2023-01-20T04:14:46;-6.90;99.90
16136;DHT22;8173;48.354;9.248;2023-01-20T04:17:13;-7.00;99.90
16136;DHT22;8173;48.354;9.248;2023-01-20T04:19:40;-7.00;99.90
16136;DHT22;8173;48.354;9.248;2023-01-20T04:22:11;-7.00;99.90
16136;DHT22;8173;48.354;9.248;2023-01-20T04:24:43;-6.90;99.90
16136;DHT22;8173;48.354;9.248;2023-01-20T04:27:12;-6.90;99.90
16136;DHT22;8173;48.354;9.248;2023-01-20T04:29:39;-6.90;99.90
16136;DHT22;8173;48.354;9.248;2023-01-20T04:32:06;-7.00;99.90
16136;DHT22;8173;48.354;9.248;2023-01-20T04:34:33;-7.00;99.90
16136;DHT22;8173;48.354;9.248;2023-01-20T04:37:00;-7.10;99.90
16136;DHT22;8173;48.354;9.248;2023-01-20T04:39:26;-7.20;99.90
16136;DHT22;8173;48.354;9.248;2023-01-20T04:41:53;-7.30;99.90
16136;DHT22;8173;48.354;9.248;2023-01-20T04:44:21;-7.20;99.90
16136;DHT22;8173;48.354;9.248;2023-01-20T04:46:48;-7.30;99.90
16136;DHT22;8173;48.354;9.248;2023-01-20T04:49:14;-7.30;99.90
16136;DHT22;8173;48.354;9.248;2023-01-20T04:51:41;-7.40;99.90
16136;DHT22;8173;48.354;9.248;2023-01-20T04:54:08;-7.40;99.90
16136;DHT22;8173;48.354;9.248;2023-01-20T04:56:34;-7.40;99.90
16136;DHT22;8173;48.354;9.248;2023-01-20T04:59:01;-7.50;99.90
16136;DHT22;8173;48.354;9.248;2023-01-20T05:01:29;-7.60;99.90
16136;DHT22;8173;48.354;9.248;2023-01-20T05:03:56;-7.80;99.90
16136;DHT22;8173;48.354;9.248;2023-01-20T05:06:23;-8.00;99.90
16136;DHT22;8173;48.354;9.248;2023-01-20T05:08:49;-8.10;99.90
16136;DHT22;8173;48.354;9.248;2023-01-20T05:11:16;-8.00;99.90
16136;DHT22;8173;48.354;9.248;2023-01-20T05:13:43;-8.10;99.90
16136;DHT22;8173;48.354;9.248;2023-01-20T05:16:10;-8.10;99.90
16136;DHT22;8173;48.354;9.248;2023-01-20T05:18:38;-8.00;99.90
16136;DHT22;8173;48.354;9.248;2023-01-20T05:21:05;-8.10;99.90
16136;DHT22;8173;48.354;9.248;2023-01-20T05:23:33;-8.10;99.90
16136;DHT22;8173;48.354;9.248;2023-01-20T05:25:59;-7.90;99.90
16136;DHT22;8173;48.354;9.248;2023-01-20T05:28:26;-7.80;99.90
16136;DHT22;8173;48.354;9.248;2023-01-20T05:30:53;-7.90;99.90
16136;DHT22;8173;48.354;9.248;2023-01-20T05:33:19;-8.00;99.90
16136;DHT22;8173;48.354;9.248;2023-01-20T05:35:47;-8.10;99.90
16136;DHT22;8173;48.354;9.248;2023-01-20T05:38:14;-8.10;99.90
16136;DHT22;8173;48.354;9.248;2023-01-20T05:40:41;-7.90;99.90
16136;DHT22;8173;48.354;9.248;2023-01-20T05:43:07;-7.70;99.90
16136;DHT22;8173;48.354;9.248;2023-01-20T05:45:34;-7.50;99.90
16136;DHT22;8173;48.354;9.248;2023-01-20T05:48:01;-7.40;99.90
16136;DHT22;8173;48.354;9.248;2023-01-20T05:50:28;-7.60;99.90
16136;DHT22;8173;48.354;9.248;2023-01-20T05:52:56;-7.50;99.90
16136;DHT22;8173;48.354;9.248;2023-01-20T05:55:24;-7.80;99.90
16136;DHT22;8173;48.354;9.248;2023-01-20T05:57:51;-8.00;99.90
16136;DHT22;8173;48.354;9.248;2023-01-20T06:00:18;-8.00;99.90
16136;DHT22;8173;48.354;9.248;2023-01-20T06:02:45;-7.90;99.90
16136;DHT22;8173;48.354;9.248;2023-01-20T06:05:12;-7.70;99.90
16136;DHT22;8173;48.354;9.248;2023-01-20T06:07:39;-7.60;99.90
16136;DHT22;8173;48.354;9.248;2023-01-20T06:10:08;-7.60;99.90
16136;DHT22;8173;48.354;9.248;2023-01-20T06:12:35;-7.50;99.90
16136;DHT22;8173;48.354;9.248;2023-01-20T06:15:02;-7.50;99.90
16136;DHT22;8173;48.354;9.248;2023-01-20T06:17:28;-7.60;99.90
16136;DHT22;8173;48.354;9.248;2023-01-20T06:19:55;-7.50;99.90
16136;DHT22;8173;48.354;9.248;2023-01-20T06:22:22;-7.50;99.90
16136;DHT22;8173;48.354;9.248;2023-01-20T06:24:50;-7.40;99.90
16136;DHT22;8173;48.354;9.248;2023-01-20T06:27:18;-7.30;99.90
16136;DHT22;8173;48.354;9.248;2023-01-20T06:29:45;-7.20;99.90
16136;DHT22;8173;48.354;9.248;2023-01-20T06:32:12;-7.20;99.90
16136;DHT22;8173;48.354;9.248;2023-01-20T06:34:38;-7.20;99.90
16136;DHT22;8173;48.354;9.248;2023-01-20T06:37:05;-7.10;99.90
16136;DHT22;8173;48.354;9.248;2023-01-20T06:39:32;-7.10;99.90
16136;DHT22;8173;48.354;9.248;2023-01-20T06:41:59;-7.10;99.90
16136;DHT22;8173;48.354;9.248;2023-01-20T06:44:27;-7.10;99.90
16136;DHT22;8173;48.354;9.248;2023-01-20T06:46:55;-7.10;99.90
16136;DHT22;8173;48.354;9.248;2023-01-20T06:49:22;-7.10;99.90
16136;DHT22;8173;48.354;9.248;2023-01-20T06:51:49;-7.20;99.90
16136;DHT22;8173;48.354;9.248;2023-01-20T06:54:16;-7.20;99.90
16136;DHT22;8173;48.354;9.248;2023-01-20T06:56:43;-7.00;99.90
16136;DHT22;8173;48.354;9.248;2023-01-20T06:59:10;-7.00;99.90
16136;DHT22;8173;48.354;9.248;2023-01-20T07:01:38;-6.80;99.90
16136;DHT22;8173;48.354;9.248;2023-01-20T07:04:05;-6.70;99.90
16136;DHT22;8173;48.354;9.248;2023-01-20T07:06:36;-6.50;99.90
16136;DHT22;8173;48.354;9.248;2023-01-20T07:09:05;-6.50;99.90
16136;DHT22;8173;48.354;9.248;2023-01-20T07:11:32;-6.40;99.90
16136;DHT22;8173;48.354;9.248;2023-01-20T07:13:59;-6.40;99.90
16136;DHT22;8173;48.354;9.248;2023-01-20T07:16:26;-6.40;99.90
16136;DHT22;8173;48.354;9.248;2023-01-20T07:18:55;-6.30;99.90
16136;DHT22;8173;48.354;9.248;2023-01-20T07:21:21;-6.20;99.90
16136;DHT22;8173;48.354;9.248;2023-01-20T07:23:48;-6.10;99.90
16136;DHT22;8173;48.354;9.248;2023-01-20T07:26:17;-6.00;99.90
16136;DHT22;8173;48.354;9.248;2023-01-20T07:28:44;-5.80;99.90
16136;DHT22;8173;48.354;9.248;2023-01-20T07:31:12;-5.80;99.90
16136;DHT22;8173;48.354;9.248;2023-01-20T07:33:39;-5.60;99.90
16136;DHT22;8173;48.354;9.248;2023-01-20T07:36:09;-5.40;99.90
16136;DHT22;8173;48.354;9.248;2023-01-20T07:38:36;-5.20;99.90
16136;DHT22;8173;48.354;9.248;2023-01-20T07:41:05;-5.10;99.90
16136;DHT22;8173;48.354;9.248;2023-01-20T07:43:32;-4.90;99.90
16136;DHT22;8173;48.354;9.248;2023-01-20T07:46:00;-4.80;99.90
16136;DHT22;8173;48.354;9.248;2023-01-20T07:48:29;-4.80;99.90
16136;DHT22;8173;48.354;9.248;2023-01-20T07:50:57;-4.80;99.90
16136;DHT22;8173;48.354;9.248;2023-01-20T07:53:29;-4.90;99.90
16136;DHT22;8173;48.354;9.248;2023-01-20T07:55:58;-4.90;99.90
16136;DHT22;8173;48.354;9.248;2023-01-20T07:58:25;-4.90;99.90
16136;DHT22;8173;48.354;9.248;2023-01-20T08:00:52;-4.90;99.90
16136;DHT22;8173;48.354;9.248;2023-01-20T08:03:19;-4.90;99.90
16136;DHT22;8173;48.354;9.248;2023-01-20T08:05:46;-4.80;99.90
16136;DHT22;8173;48.354;9.248;2023-01-20T08:08:12;-4.80;99.90
16136;DHT22;8173;48.354;9.248;2023-01-20T08:10:40;-4.50;99.90
16136;DHT22;8173;48.354;9.248;2023-01-20T08:13:07;-4.50;99.90
16136;DHT22;8173;48.354;9.248;2023-01-20T08:15:34;-4.30;99.90
16136;DHT22;8173;48.354;9.248;2023-01-20T08:18:00;-4.20;99.90
16136;DHT22;8173;48.354;9.248;2023-01-20T08:20:27;-4.00;99.90
16136;DHT22;8173;48.354;9.248;2023-01-20T08:22:54;-3.90;99.90
16136;DHT22;8173;48.354;9.248;2023-01-20T08:25:21;-3.90;99.90
16136;DHT22;8173;48.354;9.248;2023-01-20T08:27:49;-4.00;99.90
16136;DHT22;8173;48.354;9.248;2023-01-20T08:30:16;-4.00;99.90
16136;DHT22;8173;48.354;9.248;2023-01-20T08:32:43;-4.10;99.90
16136;DHT22;8173;48.354;9.248;2023-01-20T08:35:09;-4.20;99.90
16136;DHT22;8173;48.354;9.248;2023-01-20T08:37:36;-4.20;99.90
16136;DHT22;8173;48.354;9.248;2023-01-20T08:40:04;-4.10;99.90
16136;DHT22;8173;48.354;9.248;2023-01-20T08:42:32;-4.00;99.90
16136;DHT22;8173;48.354;9.248;2023-01-20T08:45:01;-3.80;99.90
16136;DHT22;8173;48.354;9.248;2023-01-20T08:47:27;-3.70;99.90
16136;DHT22;8173;48.354;9.248;2023-01-20T08:49:54;-3.40;99.90
16136;DHT22;8173;48.354;9.248;2023-01-20T08:52:21;-3.10;99.90
16136;DHT22;8173;48.354;9.248;2023-01-20T08:54:50;-2.90;99.90
16136;DHT22;8173;48.354;9.248;2023-01-20T08:57:17;-2.70;99.90
16136;DHT22;8173;48.354;9.248;2023-01-20T08:59:44;-2.50;99.90
16136;DHT22;8173;48.354;9.248;2023-01-20T09:02:13;-2.20;99.90
16136;DHT22;8173;48.354;9.248;2023-01-20T09:04:40;-2.00;99.90
16136;DHT22;8173;48.354;9.248;2023-01-20T09:07:10;-1.80;99.90
16136;DHT22;8173;48.354;9.248;2023-01-20T09:09:38;-1.60;99.90
16136;DHT22;8173;48.354;9.248;2023-01-20T09:12:05;-1.60;99.90
16136;DHT22;8173;48.354;9.248;2023-01-20T09:14:32;-1.60;99.90
16136;DHT22;8173;48.354;9.248;2023-01-20T09:16:58;-1.50;99.90
16136;DHT22;8173;48.354;9.248;2023-01-20T09:19:28;-1.40;99.90
16136;DHT22;8173;48.354;9.248;2023-01-20T09:21:55;-1.40;99.90
16136;DHT22;8173;48.354;9.248;2023-01-20T09:24:22;-1.30;99.90
16136;DHT22;8173;48.354;9.248;2023-01-20T09:26:49;-1.30;99.90
16136;DHT22;8173;48.354;9.248;2023-01-20T09:29:18;-1.30;99.90
16136;DHT22;8173;48.354;9.248;2023-01-20T09:31:48;-1.30;99.90
16136;DHT22;8173;48.354;9.248;2023-01-20T09:34:16;-1.30;99.90
16136;DHT22;8173;48.354;9.248;2023-01-20T09:36:50;-1.30;99.90
16136;DHT22;8173;48.354;9.248;2023-01-20T09:39:17;-1.40;99.90
16136;DHT22;8173;48.354;9.248;2023-01-20T09:42:20;-1.50;99.90
16136;DHT22;8173;48.354;9.248;2023-01-20T09:45:13;-1.50;99.90
16136;DHT22;8173;48.354;9.248;2023-01-20T09:47:49;-1.50;99.90
16136;DHT22;8173;48.354;9.248;2023-01-20T09:50:34;-1.40;99.90
16136;DHT22;8173;48.354;9.248;2023-01-20T09:53:42;-1.10;99.90
16136;DHT22;8173;48.354;9.248;2023-01-20T09:56:13;-0.90;99.90
16136;DHT22;8173;48.354;9.248;2023-01-20T09:58:47;-0.70;99.90
16136;DHT22;8173;48.354;9.248;2023-01-20T10:01:18;-0.60;99.90
16136;DHT22;8173;48.354;9.248;2023-01-20T10:03:52;-0.40;99.90
16136;DHT22;8173;48.354;9.248;2023-01-20T10:06:22;-0.40;99.90
16136;DHT22;8173;48.354;9.248;2023-01-20T10:08:57;-0.20;99.90
16136;DHT22;8173;48.354;9.248;2023-01-20T10:11:29;-0.20;99.90
16136;DHT22;8173;48.354;9.248;2023-01-20T10:14:02;-0.20;99.90
16136;DHT22;8173;48.354;9.248;2023-01-20T10:16:33;-0.20;99.90
16136;DHT22;8173;48.354;9.248;2023-01-20T10:19:09;-0.20;99.90
16136;DHT22;8173;48.354;9.248;2023-01-20T10:21:42;-0.20;99.90
16136;DHT22;8173;48.354;9.248;2023-01-20T10:24:14;-0.30;99.90
16136;DHT22;8173;48.354;9.248;2023-01-20T10:26:47;-0.10;99.90
16136;DHT22;8173;48.354;9.248;2023-01-20T10:29:18;0.20;99.90
16136;DHT22;8173;48.354;9.248;2023-01-20T10:31:48;0.40;99.90
16136;DHT22;8173;48.354;9.248;2023-01-20T10:34:18;0.60;99.90
16136;DHT22;8173;48.354;9.248;2023-01-20T10:36:49;0.70;99.90
16136;DHT22;8173;48.354;9.248;2023-01-20T10:39:27;0.70;99.90
16136;DHT22;8173;48.354;9.248;2023-01-20T10:42:00;0.90;99.90
16136;DHT22;8173;48.354;9.248;2023-01-20T10:44:27;0.90;99.90
16136;DHT22;8173;48.354;9.248;2023-01-20T10:47:08;0.60;99.90
16136;DHT22;8173;48.354;9.248;2023-01-20T10:49:51;0.70;99.90
16136;DHT22;8173;48.354;9.248;2023-01-20T10:52:34;0.50;99.90
16136;DHT22;8173;48.354;9.248;2023-01-20T10:55:16;0.30;99.90
16136;DHT22;8173;48.354;9.248;2023-01-20T10:57:47;0.20;99.90
16136;DHT22;8173;48.354;9.248;2023-01-20T11:00:19;0.30;99.90
16136;DHT22;8173;48.354;9.248;2023-01-20T11:02:47;0.60;99.90
16136;DHT22;8173;48.354;9.248;2023-01-20T11:05:16;0.80;99.90
16136;DHT22;8173;48.354;9.248;2023-01-20T11:07:44;0.80;99.90
16136;DHT22;8173;48.354;9.248;2023-01-20T11:10:18;0.80;99.90
16136;DHT22;8173;48.354;9.248;2023-01-20T11:12:49;0.70;99.90
16136;DHT22;8173;48.354;9.248;2023-01-20T11:15:18;0.30;99.90
16136;DHT22;8173;48.354;9.248;2023-01-20T11:20:44;0.30;99.90
16136;DHT22;8173;48.354;9.248;2023-01-20T11:23:19;0.70;99.90
16136;DHT22;8173;48.354;9.248;2023-01-20T11:25:55;-0.40;99.90
16136;DHT22;8173;48.354;9.248;2023-01-20T11:28:22;0.50;99.90
16136;DHT22;8173;48.354;9.248;2023-01-20T11:30:51;0.70;99.90
16136;DHT22;8173;48.354;9.248;2023-01-20T11:33:21;0.70;99.90
16136;DHT22;8173;48.354;9.248;2023-01-20T11:35:59;0.70;99.90
16136;DHT22;8173;48.354;9.248;2023-01-20T11:38:28;0.20;99.90
16136;DHT22;8173;48.354;9.248;2023-01-20T11:40:57;0.20;99.90
16136;DHT22;8173;48.354;9.248;2023-01-20T11:43:28;0.50;99.90
16136;DHT22;8173;48.354;9.248;2023-01-20T11:46:15;1.10;99.90
16136;DHT22;8173;48.354;9.248;2023-01-20T11:48:47;1.00;99.90
16136;DHT22;8173;48.354;9.248;2023-01-20T11:51:21;0.80;99.90
16136;DHT22;8173;48.354;9.248;2023-01-20T11:53:50;1.00;99.90
16136;DHT22;8173;48.354;9.248;2023-01-20T11:56:21;1.00;99.90
16136;DHT22;8173;48.354;9.248;2023-01-20T11:58:51;1.10;99.90
16136;DHT22;8173;48.354;9.248;2023-01-20T12:01:22;1.10;99.90
16136;DHT22;8173;48.354;9.248;2023-01-20T12:04:20;0.90;99.90
16136;DHT22;8173;48.354;9.248;2023-01-20T12:06:52;0.70;99.90
16136;DHT22;8173;48.354;9.248;2023-01-20T12:09:24;0.60;99.90
16136;DHT22;8173;48.354;9.248;2023-01-20T12:11:57;0.60;99.90
16136;DHT22;8173;48.354;9.248;2023-01-20T12:14:28;0.60;99.90
16136;DHT22;8173;48.354;9.248;2023-01-20T12:17:13;0.70;99.90
16136;DHT22;8173;48.354;9.248;2023-01-20T12:20:01;0.50;99.90
16136;DHT22;8173;48.354;9.248;2023-01-20T12:22:34;0.60;99.90
16136;DHT22;8173;48.354;9.248;2023-01-20T12:25:11;0.70;99.90
16136;DHT22;8173;48.354;9.248;2023-01-20T12:27:47;0.70;99.90
16136;DHT22;8173;48.354;9.248;2023-01-20T12:30:31;0.80;99.90
16136;DHT22;8173;48.354;9.248;2023-01-20T12:33:02;0.60;99.90
16136;DHT22;8173;48.354;9.248;2023-01-20T12:35:35;0.30;99.90
16136;DHT22;8173;48.354;9.248;2023-01-20T12:38:06;0.10;99.90
16136;DHT22;8173;48.354;9.248;2023-01-20T12:40:39;0.00;99.90
16136;DHT22;8173;48.354;9.248;2023-01-20T12:43:43;0.00;99.90
16136;DHT22;8173;48.354;9.248;2023-01-20T12:46:27;-0.10;99.90
16136;DHT22;8173;48.354;9.248;2023-01-20T12:49:13;0.10;99.90
16136;DHT22;8173;48.354;9.248;2023-01-20T12:51:54;0.60;99.90
16136;DHT22;8173;48.354;9.248;2023-01-20T12:54:44;1.10;99.90
16136;DHT22;8173;48.354;9.248;2023-01-20T12:57:24;0.90;99.90
16136;DHT22;8173;48.354;9.248;2023-01-20T13:00:13;0.90;99.90
16136;DHT22;8173;48.354;9.248;2023-01-20T13:03:09;1.00;99.90
16136;DHT22;8173;48.354;9.248;2023-01-20T13:05:56;0.70;99.90
16136;DHT22;8173;48.354;9.248;2023-01-20T13:08:34;0.90;99.90
16136;DHT22;8173;48.354;9.248;2023-01-20T13:11:13;1.30;99.90
16136;DHT22;8173;48.354;9.248;2023-01-20T13:13:50;1.40;99.90
16136;DHT22;8173;48.354;9.248;2023-01-20T13:16:30;1.40;99.90
16136;DHT22;8173;48.354;9.248;2023-01-20T13:19:02;1.20;99.90
16136;DHT22;8173;48.354;9.248;2023-01-20T13:21:31;0.90;99.90
16136;DHT22;8173;48.354;9.248;2023-01-20T13:23:59;0.90;99.90
16136;DHT22;8173;48.354;9.248;2023-01-20T13:26:28;1.10;99.90
16136;DHT22;8173;48.354;9.248;2023-01-20T13:28:56;0.80;99.90
16136;DHT22;8173;48.354;9.248;2023-01-20T13:31:35;0.50;99.90
16136;DHT22;8173;48.354;9.248;2023-01-20T13:34:31;0.10;99.90
16136;DHT22;8173;48.354;9.248;2023-01-20T13:37:28;-0.10;99.90
16136;DHT22;8173;48.354;9.248;2023-01-20T13:39:56;0.00;99.90
16136;DHT22;8173;48.354;9.248;2023-01-20T13:42:30;0.30;99.90
16136;DHT22;8173;48.354;9.248;2023-01-20T13:45:16;-0.10;99.90
16136;DHT22;8173;48.354;9.248;2023-01-20T13:47:51;-0.20;99.90
16136;DHT22;8173;48.354;9.248;2023-01-20T13:50:23;-0.30;99.90
16136;DHT22;8173;48.354;9.248;2023-01-20T13:53:14;-0.20;99.90
16136;DHT22;8173;48.354;9.248;2023-01-20T13:55:57;-0.20;99.90
16136;DHT22;8173;48.354;9.248;2023-01-20T13:58:25;-0.20;99.90
16136;DHT22;8173;48.354;9.248;2023-01-20T14:00:54;-0.20;99.90
16136;DHT22;8173;48.354;9.248;2023-01-20T14:03:25;-0.20;99.90
16136;DHT22;8173;48.354;9.248;2023-01-20T14:05:54;-0.20;99.90
16136;DHT22;8173;48.354;9.248;2023-01-20T14:08:23;-0.30;99.90
16136;DHT22;8173;48.354;9.248;2023-01-20T14:10:50;-0.50;99.90
16136;DHT22;8173;48.354;9.248;2023-01-20T14:13:19;-0.80;99.90
16136;DHT22;8173;48.354;9.248;2023-01-20T14:15:51;-0.80;99.90
16136;DHT22;8173;48.354;9.248;2023-01-20T14:18:20;-1.00;99.90
16136;DHT22;8173;48.354;9.248;2023-01-20T14:21:01;-1.10;99.90
16136;DHT22;8173;48.354;9.248;2023-01-20T14:23:36;-1.30;99.90
16136;DHT22;8173;48.354;9.248;2023-01-20T14:26:11;-1.40;99.90
16136;DHT22;8173;48.354;9.248;2023-01-20T14:28:47;-1.30;99.90
16136;DHT22;8173;48.354;9.248;2023-01-20T14:31:19;-1.00;99.90
16136;DHT22;8173;48.354;9.248;2023-01-20T14:33:51;-0.80;99.90
16136;DHT22;8173;48.354;9.248;2023-01-20T14:36:21;-0.60;99.90
16136;DHT22;8173;48.354;9.248;2023-01-20T14:38:51;-0.20;99.90
16136;DHT22;8173;48.354;9.248;2023-01-20T14:41:32;0.00;99.90
16136;DHT22;8173;48.354;9.248;2023-01-20T14:44:00;0.30;99.90
16136;DHT22;8173;48.354;9.248;2023-01-20T14:46:29;0.30;99.90
16136;DHT22;8173;48.354;9.248;2023-01-20T14:48:57;0.20;99.90
16136;DHT22;8173;48.354;9.248;2023-01-20T14:51:26;0.10;99.90
16136;DHT22;8173;48.354;9.248;2023-01-20T14:56:53;-0.30;99.90
16136;DHT22;8173;48.354;9.248;2023-01-20T14:59:21;-0.80;99.90
16136;DHT22;8173;48.354;9.248;2023-01-20T15:01:53;-1.20;99.90
16136;DHT22;8173;48.354;9.248;2023-01-20T15:04:20;-1.50;99.90
16136;DHT22;8173;48.354;9.248;2023-01-20T15:06:53;-1.70;99.90
16136;DHT22;8173;48.354;9.248;2023-01-20T15:09:26;-1.90;99.90
16136;DHT22;8173;48.354;9.248;2023-01-20T15:12:37;-2.00;99.90
16136;DHT22;8173;48.354;9.248;2023-01-20T15:15:13;-2.20;99.90
16136;DHT22;8173;48.354;9.248;2023-01-20T15:20:46;-2.50;99.90
16136;DHT22;8173;48.354;9.248;2023-01-20T15:23:19;-2.70;99.90
16136;DHT22;8173;48.354;9.248;2023-01-20T15:25:47;-2.80;99.90
16136;DHT22;8173;48.354;9.248;2023-01-20T15:28:24;-2.90;99.90
16136;DHT22;8173;48.354;9.248;2023-01-20T15:30:53;-3.00;99.90
16136;DHT22;8173;48.354;9.248;2023-01-20T15:33:20;-3.10;99.90
16136;DHT22;8173;48.354;9.248;2023-01-20T15:35:56;-3.20;99.90
16136;DHT22;8173;48.354;9.248;2023-01-20T15:38:25;-3.20;99.90
16136;DHT22;8173;48.354;9.248;2023-01-20T15:40:52;-3.30;99.90
16136;DHT22;8173;48.354;9.248;2023-01-20T15:43:19;-3.40;99.90
16136;DHT22;8173;48.354;9.248;2023-01-20T15:45:46;-3.50;99.90
16136;DHT22;8173;48.354;9.248;2023-01-20T15:48:15;-3.50;99.90
16136;DHT22;8173;48.354;9.248;2023-01-20T15:50:42;-3.60;99.90
16136;DHT22;8173;48.354;9.248;2023-01-20T15:53:09;-3.70;99.90
16136;DHT22;8173;48.354;9.248;2023-01-20T15:55:40;-3.80;99.90
16136;DHT22;8173;48.354;9.248;2023-01-20T15:58:21;-3.80;99.90
16136;DHT22;8173;48.354;9.248;2023-01-20T16:00:48;-3.90;99.90
16136;DHT22;8173;48.354;9.248;2023-01-20T16:03:15;-4.00;99.90
16136;DHT22;8173;48.354;9.248;2023-01-20T16:05:42;-4.10;99.90
16136;DHT22;8173;48.354;9.248;2023-01-20T16:08:13;-4.20;99.90
16136;DHT22;8173;48.354;9.248;2023-01-20T16:10:41;-4.30;99.90
16136;DHT22;8173;48.354;9.248;2023-01-20T16:13:09;-4.30;99.90
16136;DHT22;8173;48.354;9.248;2023-01-20T16:15:35;-4.40;99.90
16136;DHT22;8173;48.354;9.248;2023-01-20T16:18:03;-4.50;99.90
16136;DHT22;8173;48.354;9.248;2023-01-20T16:20:30;-4.50;99.90
16136;DHT22;8173;48.354;9.248;2023-01-20T16:22:56;-4.60;99.90
16136;DHT22;8173;48.354;9.248;2023-01-20T16:25:23;-4.90;99.90
16136;DHT22;8173;48.354;9.248;2023-01-20T16:27:51;-5.00;99.90
16136;DHT22;8173;48.354;9.248;2023-01-20T16:30:19;-5.10;99.90
16136;DHT22;8173;48.354;9.248;2023-01-20T16:32:46;-5.40;99.90